createdAt,value
2023-03-26T00:02:05.426Z,91.21
2023-03-26T00:04:34.658Z,91.42
2023-03-26T00:07:03.256Z,91.51
2023-03-26T00:09:31.488Z,91.61
2023-03-26T00:11:59.590Z,91.73
2023-03-26T00:14:29.402Z,91.73
2023-03-26T00:16:57.602Z,91.57
2023-03-26T00:19:25.588Z,91.36
2023-03-26T00:21:53.614Z,91.35
2023-03-26T00:24:21.808Z,91.29
2023-03-26T00:26:53.647Z,91.17
2023-03-26T00:29:28.139Z,91.52
2023-03-26T00:31:57.212Z,91.38
2023-03-26T00:34:26.990Z,91.24
2023-03-26T00:36:55.070Z,91.57
2023-03-26T00:39:25.892Z,91.48
2023-03-26T00:41:54.794Z,91.78
2023-03-26T00:44:23.584Z,91.86
2023-03-26T00:46:51.747Z,92.09
2023-03-26T00:49:20.129Z,92.16
2023-03-26T00:51:48.200Z,92.36
2023-03-26T00:54:16.777Z,92.18
2023-03-26T00:56:45.605Z,92.16
2023-03-26T00:59:13.763Z,92.32
2023-03-26T01:01:41.895Z,92.16
2023-03-26T01:04:32.180Z,92.29
2023-03-26T01:07:22.814Z,92.36
2023-03-26T01:09:51.693Z,92.29
2023-03-26T01:12:22.576Z,92.38
2023-03-26T01:14:52.866Z,92.38
2023-03-26T01:17:22.267Z,92.79
2023-03-26T01:19:58.830Z,92.83
2023-03-26T01:22:27.941Z,92.82
2023-03-26T01:24:58.654Z,92.94
2023-03-26T01:27:44.884Z,93.05
2023-03-26T01:30:33.852Z,93.07
2023-03-26T01:33:26.499Z,92.84
2023-03-26T01:36:19.441Z,93.06
2023-03-26T01:39:00.663Z,92.82
2023-03-26T01:41:49.091Z,92.71
2023-03-26T01:44:24.729Z,92.48
2023-03-26T01:46:53.875Z,92.68
2023-03-26T01:49:21.950Z,92.51
2023-03-26T01:51:51.577Z,92.44
2023-03-26T01:54:22.647Z,92.40
2023-03-26T01:56:58.067Z,92.41
2023-03-26T01:59:44.461Z,92.39
2023-03-26T02:02:42.718Z,92.35
2023-03-26T02:05:14.014Z,92.52
2023-03-26T02:07:41.943Z,92.64
2023-03-26T02:10:21.236Z,92.34
2023-03-26T02:12:50.979Z,92.18
2023-03-26T02:15:19.093Z,92.25
2023-03-26T02:17:47.287Z,92.02
2023-03-26T02:20:18.993Z,92.14
2023-03-26T02:22:47.993Z,92.10
2023-03-26T02:25:20.443Z,92.05
2023-03-26T02:27:51.612Z,91.78
2023-03-26T02:30:25.941Z,91.78
2023-03-26T02:32:59.423Z,91.72
2023-03-26T02:35:32.580Z,91.62
2023-03-26T02:38:02.219Z,91.28
2023-03-26T02:40:30.282Z,91.27
2023-03-26T02:42:59.085Z,91.75
2023-03-26T02:45:28.535Z,91.86
2023-03-26T02:48:08.518Z,91.87
2023-03-26T02:50:54.655Z,91.80
2023-03-26T02:53:53.869Z,92.02
2023-03-26T02:56:41.165Z,91.92
2023-03-26T02:59:22.414Z,91.72
2023-03-26T03:02:00.544Z,91.30
2023-03-26T03:04:28.539Z,91.20
2023-03-26T03:06:57.918Z,91.32
2023-03-26T03:09:26.470Z,91.28
2023-03-26T03:12:26.413Z,91.37
2023-03-26T03:14:54.459Z,91.97
2023-03-26T03:17:22.435Z,92.27
2023-03-26T03:19:50.505Z,92.41
2023-03-26T03:22:20.312Z,92.47
2023-03-26T03:24:48.898Z,92.61
2023-03-26T03:27:18.409Z,92.72
2023-03-26T03:29:56.202Z,92.73
2023-03-26T03:32:44.498Z,92.56
2023-03-26T03:35:12.951Z,92.59
2023-03-26T03:37:42.541Z,92.63
2023-03-26T03:40:11.377Z,92.54
2023-03-26T03:42:39.599Z,92.89
2023-03-26T03:45:08.596Z,92.72
2023-03-26T03:47:53.393Z,92.76
2023-03-26T03:50:27.772Z,92.39
2023-03-26T03:53:07.727Z,92.47
2023-03-26T03:55:38.461Z,92.22
2023-03-26T03:58:09.298Z,92.34
2023-03-26T04:00:38.594Z,92.54
2023-03-26T04:03:33.407Z,93.03
2023-03-26T04:06:07.093Z,93.25
2023-03-26T04:08:35.883Z,93.40
2023-03-26T04:11:06.031Z,93.73
2023-03-26T04:13:54.344Z,93.68
2023-03-26T04:16:30.866Z,93.54
2023-03-26T04:19:02.495Z,93.66
2023-03-26T04:21:30.767Z,93.48
2023-03-26T04:23:58.859Z,93.72
2023-03-26T04:27:12.878Z,93.91
2023-03-26T04:29:46.911Z,93.82
2023-03-26T04:32:30.351Z,93.78
2023-03-26T04:35:00.461Z,93.96
2023-03-26T04:37:41.007Z,93.94
2023-03-26T04:40:19.564Z,94.05
2023-03-26T04:43:18.297Z,94.18
2023-03-26T04:45:53.551Z,94.06
2023-03-26T04:48:23.047Z,94.20
2023-03-26T04:50:51.322Z,94.05
2023-03-26T04:53:21.738Z,94.03
2023-03-26T04:56:45.663Z,93.92
2023-03-26T04:59:52.296Z,93.73
2023-03-26T05:02:20.775Z,93.68
2023-03-26T05:04:57.323Z,93.79
2023-03-26T05:07:27.987Z,93.49
2023-03-26T05:09:57.762Z,93.48
2023-03-26T05:12:36.202Z,93.45
2023-03-26T05:15:09.337Z,93.27
2023-03-26T05:17:46.700Z,93.39
2023-03-26T05:20:24.897Z,93.25
2023-03-26T05:22:53.896Z,93.24
2023-03-26T05:25:28.659Z,93.02
2023-03-26T05:27:57.400Z,93.14
2023-03-26T05:30:28.621Z,92.80
2023-03-26T05:32:59.883Z,92.80
2023-03-26T05:35:32.078Z,92.62
2023-03-26T05:38:00.112Z,92.55
2023-03-26T05:40:28.827Z,92.57
2023-03-26T05:43:02.003Z,92.30
2023-03-26T05:45:39.346Z,91.97
2023-03-26T05:48:19.648Z,92.02
2023-03-26T05:50:52.911Z,92.03
2023-03-26T05:53:22.961Z,91.73
2023-03-26T05:56:10.176Z,91.74
2023-03-26T05:58:42.451Z,91.54
2023-03-26T06:01:29.669Z,91.42
2023-03-26T06:04:17.692Z,91.46
2023-03-26T06:06:57.998Z,91.34
2023-03-26T06:09:26.833Z,90.59
2023-03-26T06:11:55.046Z,90.01
2023-03-26T06:14:23.517Z,89.37
2023-03-26T06:17:14.312Z,89.04
2023-03-26T06:20:01.258Z,88.68
2023-03-26T06:22:37.896Z,88.72
2023-03-26T06:25:17.646Z,88.71
2023-03-26T06:28:01.404Z,88.21
2023-03-26T06:30:55.191Z,88.28
2023-03-26T06:33:43.937Z,88.41
2023-03-26T06:36:13.795Z,88.27
2023-03-26T06:38:42.166Z,88.05
2023-03-26T06:41:10.834Z,88.23
2023-03-26T06:43:59.995Z,88.45
2023-03-26T06:46:38.030Z,88.46
2023-03-26T06:49:31.939Z,88.62
2023-03-26T06:52:17.526Z,89.01
2023-03-26T06:54:48.352Z,88.90
2023-03-26T06:57:37.733Z,88.97
2023-03-26T07:00:34.688Z,89.21
2023-03-26T07:03:24.250Z,89.33
2023-03-26T07:06:11.189Z,89.56
2023-03-26T07:08:59.303Z,89.80
2023-03-26T07:11:27.476Z,89.40
2023-03-26T07:14:14.389Z,89.30
2023-03-26T07:17:00.108Z,88.90
2023-03-26T07:19:52.889Z,88.49
2023-03-26T07:22:25.789Z,88.70
2023-03-26T07:25:07.218Z,88.17
2023-03-26T07:28:29.415Z,87.36
2023-03-26T07:31:42.780Z,87.73
2023-03-26T07:35:15.958Z,88.21
2023-03-26T07:38:02.671Z,87.35
2023-03-26T07:41:26.965Z,86.26
2023-03-26T07:44:37.217Z,85.30
2023-03-26T07:47:36.149Z,84.75
2023-03-26T07:50:36.966Z,84.38
2023-03-26T07:53:23.876Z,84.44
2023-03-26T07:56:14.656Z,84.48
2023-03-26T07:59:21.344Z,84.48
2023-03-26T08:02:20.460Z,84.56
2023-03-26T08:05:00.234Z,83.94
2023-03-26T08:08:14.090Z,83.30
2023-03-26T08:10:52.231Z,82.65
2023-03-26T08:13:28.058Z,82.50
2023-03-26T08:16:23.613Z,82.48
2023-03-26T08:19:42.580Z,82.14
2023-03-26T08:22:27.550Z,81.89
2023-03-26T08:25:12.059Z,81.50
2023-03-26T08:27:43.441Z,81.47
2023-03-26T08:30:21.081Z,80.51
2023-03-26T08:33:00.828Z,79.58
2023-03-26T08:35:28.886Z,79.11
2023-03-26T08:37:56.849Z,79.11
2023-03-26T08:40:54.006Z,78.99
2023-03-26T08:43:46.520Z,77.92
2023-03-26T08:46:15.562Z,77.72
2023-03-26T08:48:51.879Z,76.77
2023-03-26T08:51:52.309Z,77.27
2023-03-26T08:54:37.479Z,76.28
2023-03-26T08:57:37.190Z,74.91
2023-03-26T09:00:15.921Z,74.85
2023-03-26T09:03:28.893Z,74.31
2023-03-26T09:06:15.638Z,73.96
2023-03-26T09:08:54.395Z,73.65
2023-03-26T09:11:40.977Z,73.01
2023-03-26T09:14:21.265Z,73.12
2023-03-26T09:17:12.858Z,72.31
2023-03-26T09:19:56.286Z,72.06
2023-03-26T09:22:39.819Z,72.15
2023-03-26T09:25:27.816Z,71.32
2023-03-26T09:28:44.052Z,71.07
2023-03-26T09:31:35.327Z,70.85
2023-03-26T09:34:32.266Z,70.68
2023-03-26T09:37:06.002Z,71.06
2023-03-26T09:39:44.946Z,70.48
2023-03-26T09:42:46.210Z,70.07
2023-03-26T09:45:53.261Z,69.00
2023-03-26T09:48:46.140Z,68.46
2023-03-26T09:51:33.468Z,68.41
2023-03-26T09:54:25.777Z,67.97
2023-03-26T09:57:06.326Z,68.13
2023-03-26T09:59:45.694Z,68.49
2023-03-26T10:02:22.764Z,68.47
2023-03-26T10:05:27.302Z,68.64
2023-03-26T10:08:25.282Z,68.75
2023-03-26T10:11:27.956Z,68.80
2023-03-26T10:14:39.454Z,69.96
2023-03-26T10:17:25.812Z,71.11
2023-03-26T10:20:17.979Z,70.96
2023-03-26T10:23:24.665Z,71.06
2023-03-26T10:26:13.117Z,71.36
2023-03-26T10:28:56.983Z,71.63
2023-03-26T10:31:47.575Z,71.31
2023-03-26T10:34:34.286Z,70.43
2023-03-26T10:37:46.147Z,70.56
2023-03-26T10:40:25.258Z,70.43
2023-03-26T10:43:57.697Z,70.10
2023-03-26T10:46:35.765Z,69.53
2023-03-26T10:49:12.550Z,70.39
2023-03-26T10:51:48.897Z,69.87
2023-03-26T10:54:42.833Z,68.61
2023-03-26T10:57:41.387Z,67.55
2023-03-26T11:00:25.763Z,67.32
2023-03-26T11:03:26.258Z,66.43
2023-03-26T11:06:23.727Z,66.17
2023-03-26T11:09:02.639Z,65.99
2023-03-26T11:11:55.010Z,66.22
2023-03-26T11:15:04.548Z,65.91
2023-03-26T11:18:00.898Z,66.28
2023-03-26T11:21:19.146Z,65.63
2023-03-26T11:24:05.050Z,64.25
2023-03-26T11:27:14.853Z,63.75
2023-03-26T11:30:14.263Z,63.76
2023-03-26T11:32:50.562Z,63.44
2023-03-26T11:35:39.731Z,63.05
2023-03-26T11:38:40.521Z,62.98
2023-03-26T11:41:25.527Z,62.94
2023-03-26T11:44:14.365Z,62.83
2023-03-26T11:46:45.933Z,62.10
2023-03-26T11:49:18.685Z,61.92
2023-03-26T11:51:48.792Z,61.18
2023-03-26T11:54:18.018Z,61.25
2023-03-26T11:57:05.266Z,60.90
2023-03-26T11:59:56.593Z,61.18
2023-03-26T12:02:35.714Z,61.12
2023-03-26T12:05:14.910Z,60.66
2023-03-26T12:07:57.045Z,60.50
2023-03-26T12:10:27.128Z,59.99
2023-03-26T12:12:59.121Z,59.35
2023-03-26T12:15:28.386Z,59.41
2023-03-26T12:17:58.868Z,58.79
2023-03-26T12:20:29.844Z,59.23
2023-03-26T12:23:03.333Z,59.21
2023-03-26T12:25:39.173Z,58.57
2023-03-26T12:28:13.331Z,58.63
2023-03-26T12:30:53.063Z,58.65
2023-03-26T12:33:34.797Z,58.45
2023-03-26T12:36:27.106Z,58.28
2023-03-26T12:39:16.364Z,58.88
2023-03-26T12:44:42.801Z,58.82
2023-03-26T12:44:56.402Z,58.76
2023-03-26T12:48:00.250Z,57.36
2023-03-26T12:50:34.117Z,56.40
2023-03-26T12:53:03.029Z,56.46
2023-03-26T12:56:12.653Z,56.88
2023-03-26T12:59:08.170Z,57.40
2023-03-26T13:01:45.402Z,58.00
2023-03-26T13:04:22.457Z,57.93
2023-03-26T13:07:00.871Z,58.70
2023-03-26T13:09:55.393Z,58.84
2023-03-26T13:12:41.177Z,58.20
2023-03-26T13:15:18.341Z,57.54
2023-03-26T13:18:16.345Z,56.33
2023-03-26T13:20:59.855Z,55.21
2023-03-26T13:24:05.498Z,55.94
2023-03-26T13:26:56.718Z,56.85
2023-03-26T13:30:00.779Z,57.07
2023-03-26T13:32:58.853Z,57.81
2023-03-26T13:35:34.126Z,58.42
2023-03-26T13:38:05.116Z,58.60
2023-03-26T13:40:57.898Z,58.58
2023-03-26T13:43:35.826Z,62.26
2023-03-26T13:46:55.969Z,61.55
2023-03-26T13:49:37.524Z,60.41
2023-03-26T13:52:47.467Z,60.51
2023-03-26T13:55:36.164Z,60.61
2023-03-26T13:58:23.135Z,60.43
2023-03-26T14:00:55.295Z,60.06
2023-03-26T14:03:31.912Z,60.12
2023-03-26T14:06:24.245Z,60.01
2023-03-26T14:08:59.574Z,60.75
2023-03-26T14:12:21.079Z,60.61
2023-03-26T14:15:42.613Z,60.55
2023-03-26T14:18:22.863Z,60.59
2023-03-26T14:21:29.009Z,60.14
2023-03-26T14:24:34.564Z,60.32
2023-03-26T14:27:34.377Z,59.85
2023-03-26T14:30:23.590Z,60.29
2023-03-26T14:33:27.305Z,60.47
2023-03-26T14:36:13.747Z,60.66
2023-03-26T14:39:12.759Z,60.78
2023-03-26T14:41:51.584Z,60.91
2023-03-26T14:44:25.783Z,61.66
2023-03-26T14:47:27.131Z,62.22
2023-03-26T14:50:35.999Z,63.12
2023-03-26T14:53:22.980Z,62.97
2023-03-26T14:55:54.224Z,63.08
2023-03-26T14:58:50.572Z,63.08
2023-03-26T15:01:45.205Z,63.34
2023-03-26T15:04:46.196Z,63.54
2023-03-26T15:07:36.699Z,63.34
2023-03-26T15:10:05.816Z,62.97
2023-03-26T15:12:51.171Z,62.84
2023-03-26T15:16:14.607Z,62.43
2023-03-26T15:19:09.025Z,62.33
2023-03-26T15:22:01.935Z,61.86
2023-03-26T15:24:55.032Z,61.89
2023-03-26T15:28:09.628Z,61.56
2023-03-26T15:31:10.097Z,61.98
2023-03-26T15:33:57.365Z,62.38
2023-03-26T15:36:47.024Z,62.32
2023-03-26T15:39:28.000Z,62.24
2023-03-26T15:42:15.627Z,62.33
2023-03-26T15:45:22.601Z,62.41
2023-03-26T15:47:56.804Z,62.68
2023-03-26T15:50:38.203Z,62.78
2023-03-26T15:53:29.331Z,62.71
2023-03-26T15:56:35.814Z,63.10
2023-03-26T15:59:23.323Z,63.52
2023-03-26T16:02:35.070Z,63.44
2023-03-26T16:05:22.483Z,63.85
2023-03-26T16:08:19.079Z,63.71
2023-03-26T16:10:49.910Z,63.75
2023-03-26T16:13:20.851Z,64.11
2023-03-26T16:15:58.299Z,64.31
2023-03-26T16:18:35.997Z,64.27
2023-03-26T16:21:06.966Z,64.64
2023-03-26T16:23:47.311Z,64.71
2023-03-26T16:26:36.542Z,65.14
2023-03-26T16:29:25.883Z,65.35
2023-03-26T16:32:08.080Z,65.34
2023-03-26T16:34:53.245Z,65.46
2023-03-26T16:37:36.841Z,65.60
2023-03-26T16:40:26.454Z,65.39
2023-03-26T16:43:22.801Z,65.37
2023-03-26T16:45:51.175Z,65.57
2023-03-26T16:48:31.630Z,65.48
2023-03-26T16:51:14.880Z,65.68
2023-03-26T16:53:54.058Z,65.40
2023-03-26T16:57:14.113Z,65.54
2023-03-26T17:00:06.129Z,65.93
2023-03-26T17:02:42.033Z,66.02
2023-03-26T17:05:44.398Z,66.05
2023-03-26T17:08:35.391Z,66.24
2023-03-26T17:11:07.514Z,66.50
2023-03-26T17:13:56.284Z,66.67
2023-03-26T17:16:30.709Z,67.00
2023-03-26T17:19:25.899Z,67.26
2023-03-26T17:22:11.644Z,67.76
2023-03-26T17:24:49.075Z,67.85
2023-03-26T17:27:56.153Z,68.21
2023-03-26T17:31:03.618Z,68.67
2023-03-26T17:33:34.995Z,69.24
2023-03-26T17:36:12.613Z,69.45
2023-03-26T17:38:45.503Z,69.62
2023-03-26T17:41:35.401Z,69.88
2023-03-26T17:44:43.754Z,70.09
2023-03-26T17:47:35.926Z,70.08
2023-03-26T17:50:30.013Z,70.37
2023-03-26T17:53:03.511Z,70.57
2023-03-26T17:55:35.723Z,70.62
2023-03-26T17:58:06.939Z,70.78
2023-03-26T18:00:47.342Z,70.98
2023-03-26T18:03:24.505Z,71.47
2023-03-26T18:05:57.682Z,71.40
2023-03-26T18:08:32.586Z,71.80
2023-03-26T18:11:28.338Z,71.93
2023-03-26T18:14:18.585Z,72.23
2023-03-26T18:17:01.713Z,72.46
2023-03-26T18:19:31.975Z,72.45
2023-03-26T18:22:05.477Z,72.58
2023-03-26T18:24:38.414Z,72.65
2023-03-26T18:27:12.404Z,72.73
2023-03-26T18:30:14.718Z,72.87
2023-03-26T18:33:05.264Z,73.13
2023-03-26T18:35:50.086Z,73.43
2023-03-26T18:38:35.659Z,73.82
2023-03-26T18:41:15.486Z,73.99
2023-03-26T18:43:44.825Z,74.27
2023-03-26T18:46:14.975Z,74.59
2023-03-26T18:48:44.328Z,74.97
2023-03-26T18:51:12.818Z,75.12
2023-03-26T18:53:55.961Z,75.47
2023-03-26T18:56:24.092Z,75.80
2023-03-26T18:58:53.084Z,76.15
2023-03-26T19:01:25.699Z,76.46
2023-03-26T19:03:55.595Z,76.42
2023-03-26T19:06:26.221Z,76.50
2023-03-26T19:08:55.193Z,76.50
2023-03-26T19:11:25.634Z,76.60
2023-03-26T19:14:07.036Z,76.50
2023-03-26T19:16:37.265Z,76.75
2023-03-26T19:19:07.868Z,76.95
2023-03-26T19:21:37.154Z,77.01
2023-03-26T19:24:05.974Z,77.22
2023-03-26T19:26:36.597Z,77.23
2023-03-26T19:29:05.711Z,77.26
2023-03-26T19:31:39.195Z,77.37
2023-03-26T19:34:17.954Z,77.25
2023-03-26T19:37:01.672Z,77.22
2023-03-26T19:39:43.835Z,77.32
2023-03-26T19:42:26.848Z,77.24
2023-03-26T19:45:18.790Z,77.47
2023-03-26T19:47:57.315Z,77.27
2023-03-26T19:50:34.588Z,77.50
2023-03-26T19:53:16.827Z,77.68
2023-03-26T19:56:05.250Z,77.99
2023-03-26T19:58:35.921Z,77.94
2023-03-26T20:01:05.078Z,78.08
2023-03-26T20:03:42.446Z,78.16
2023-03-26T20:06:13.497Z,78.31
2023-03-26T20:08:41.787Z,78.39
2023-03-26T20:11:33.562Z,78.63
2023-03-26T20:14:02.209Z,78.85
2023-03-26T20:16:35.879Z,78.93
2023-03-26T20:19:04.729Z,79.18
2023-03-26T20:21:34.860Z,79.37
2023-03-26T20:24:11.994Z,79.55
2023-03-26T20:26:39.962Z,79.43
2023-03-26T20:29:08.031Z,79.60
2023-03-26T20:31:36.324Z,79.70
2023-03-26T20:34:10.231Z,79.92
2023-03-26T20:36:38.426Z,80.03
2023-03-26T20:39:08.194Z,79.87
2023-03-26T20:41:43.643Z,80.02
2023-03-26T20:44:17.858Z,80.37
2023-03-26T20:46:48.411Z,80.59
2023-03-26T20:49:18.317Z,80.75
2023-03-26T20:51:46.914Z,80.83
2023-03-26T20:54:21.698Z,80.84
2023-03-26T20:56:50.643Z,81.04
2023-03-26T20:59:22.273Z,81.10
2023-03-26T21:01:51.734Z,81.26
2023-03-26T21:04:21.463Z,81.26
2023-03-26T21:06:49.523Z,81.32
2023-03-26T21:09:23.926Z,81.48
2023-03-26T21:12:30.175Z,81.53
2023-03-26T21:14:58.981Z,81.54
2023-03-26T21:17:28.454Z,81.49
2023-03-26T21:20:01.405Z,82.03
2023-03-26T21:22:46.218Z,81.97
2023-03-26T21:25:35.734Z,82.06
2023-03-26T21:28:39.415Z,82.35
2023-03-26T21:31:22.749Z,82.64
2023-03-26T21:33:52.059Z,82.93
2023-03-26T21:36:20.694Z,83.29
2023-03-26T21:38:50.727Z,83.27
2023-03-26T21:41:36.539Z,83.32
2023-03-26T21:44:04.530Z,83.53
2023-03-26T21:46:33.512Z,83.60
2023-03-26T21:49:02.512Z,83.47
2023-03-26T21:51:32.058Z,83.33
2023-03-26T21:54:00.596Z,83.48
2023-03-26T21:56:46.690Z,83.31
2023-03-26T21:59:28.988Z,83.22
2023-03-26T22:02:08.037Z,83.25
2023-03-26T22:04:47.641Z,82.94
2023-03-26T22:07:54.350Z,83.14
2023-03-26T22:10:23.358Z,83.19
2023-03-26T22:12:51.464Z,83.36
2023-03-26T22:15:20.144Z,83.26
2023-03-26T22:17:55.955Z,83.38
2023-03-26T22:20:25.393Z,83.24
2023-03-26T22:22:55.461Z,83.67
2023-03-26T22:25:24.260Z,83.67
2023-03-26T22:27:52.874Z,83.53
2023-03-26T22:30:21.320Z,83.58
2023-03-26T22:32:50.491Z,83.52
2023-03-26T22:35:18.680Z,84.02
2023-03-26T22:37:47.680Z,83.74
2023-03-26T22:40:16.370Z,84.21
2023-03-26T22:42:45.151Z,83.94
2023-03-26T22:45:13.740Z,84.16
2023-03-26T22:47:41.820Z,84.02
2023-03-26T22:50:10.901Z,84.10
2023-03-26T22:52:40.822Z,83.96
2023-03-26T22:55:11.189Z,84.43
2023-03-26T22:57:39.972Z,84.36
2023-03-26T23:00:20.024Z,84.63
2023-03-26T23:02:48.093Z,84.42
2023-03-26T23:05:19.505Z,84.73
2023-03-26T23:07:49.010Z,84.84
2023-03-26T23:10:17.097Z,84.75
2023-03-26T23:12:45.153Z,84.43
2023-03-26T23:15:14.275Z,84.53
2023-03-26T23:17:42.587Z,84.26
2023-03-26T23:20:15.021Z,84.48
2023-03-26T23:22:43.492Z,84.39
2023-03-26T23:25:12.379Z,84.46
2023-03-26T23:27:41.621Z,84.52
2023-03-26T23:30:11.194Z,84.62
2023-03-26T23:32:39.427Z,84.41
2023-03-26T23:35:08.148Z,84.47
2023-03-26T23:37:39.015Z,84.74
2023-03-26T23:40:10.332Z,84.20
2023-03-26T23:42:38.699Z,84.66
2023-03-26T23:45:08.748Z,84.83
2023-03-26T23:47:37.528Z,84.91
2023-03-26T23:50:06.718Z,84.84
2023-03-26T23:52:34.760Z,84.84
2023-03-26T23:55:02.736Z,84.34
2023-03-26T23:57:30.821Z,84.85
2023-03-26T23:59:58.805Z,84.86
